KCBE/CBE METAR and TAF weather

Enter ICAO airport designator
Station Type Date Time Source
KCBE METAR 2020/04/07 03:20 UTC NOAA

KCBE 070320Z AUTO 00000KT 10SM SCT100 SCT120 13/00 A3006 RMK AO2 T01271004


Station Type Date Time Source
KCBE Decoded METAR 2020/04/07 03:20 UTC NOAA

Cumberland, Greater Cumberland Regional Airport, MD, United States (KCBE) 39-36-55N 078-45-39W
Apr 06, 2020 - 11:20 PM EDT / 2020.04.07 0320 UTC
Wind: Calm:0
Visibility: 10 mile(s):0
Sky conditions: partly cloudy
Temperature: 54.9 F (12.7 C)
Dew Point: 31.3 F (-0.4 C)
Relative Humidity: 40%
Pressure (altimeter): 30.06 in. Hg (1017 hPa)
ob: KCBE 070320Z AUTO 00000KT 10SM SCT100 SCT120 13/00 A3006 RMK AO2 T01271004
cycle: 3

Station Type Date Time Source
KCBE TAF UTC NOAA

Error!

Example: see airport list